Portada
METAR-TAF:

METAR-TAF

Aeroports :

Madrid-Getafe, Espanya

latitud: 40-18N, longitud: 003-43W, altitud: 620 m

Observació

L'informe es va fer fa 8 hores i 40 minuts, a les 18:00 UTC
Vent 4 kt del Sud/Sud-Oest
Temperatura 16°C
Humitat 42%
Pressió 1032 hPa
Visibilitat 10 km o més
sense núvols per sota de 1500 mi sense presència de cumulonimbus.

METAR: LEGT 221800Z 21004KT CAVOK 16/03 Q1032

Hora: 03:40 (02:40 UTC)

Pronòstic

L'informe es va fer fa 40 minuts, a les 02:00 UTC
Pronòstic vàlid del 23 a les 03 UTC al 23 a les 12 UTC
Vent 4 kt amb direcció variable
Visibilitat 10 km o més
sense núvols per sota de 1500 mi sense presència de cumulonimbus.

TAF: LEGT 230200Z 2303/2312 VRB04KT CAVOK

Observacions i pronòstics meteorològics de més de 4000 aeroports (METAR i TAF).

Les estacions disponibles són els punts grocs i vermells al mapa.

Posi el ratolí al punt desitjat per veure el nom de l'estació.

Feu clic per veure les observacions i els pronòstics meteorològics.

Per canviar el mapa: feu clic els botons verds amb una creu de color negre per apropar; al botó verd amb un guió per allunyar la imatge; o en les fletxes verdes per a mapes adjacents.


METAR-TAF: